Time;durP1;ratioP1;P1;durP2;ratioP2;P2;SDS_P1;SDS_P2;PMS_P1;PMS_P2;Temp;Humidity;BMP_temperature;BMP_pressure;BME280_temperature;BME280_humidity;BME280_pressure;Samples;Min_cycle;Max_cycle;Signal;HPM_P1;HPM_P2
2023/07/19 00:02:09;;;;;;;;;;;;;;;18.25;60.44;100291.23;108054;1254;63116;-75
2023/07/19 00:04:36;;;;;;;;;;;;;;;18.14;60.77;100290.95;108029;1256;60588;-77
2023/07/19 00:07:03;;;;;;;;;;;;;;;18.06;60.91;100296.90;108090;1254;61259;-77
2023/07/19 00:09:29;;;;;;;;;;;;;;;18.02;61.18;100295.11;108086;1254;71345;-76
2023/07/19 00:11:59;;;;;;;;;;;;;;;17.96;61.35;100293.77;108108;1256;72727;-77
2023/07/19 00:14:26;;;;;;;;;;;;;;;17.90;61.49;100294.17;108053;1254;62002;-77
2023/07/19 00:16:53;;;;;;;;;;;;;;;17.90;61.67;100289.30;108151;1254;61230;-77
2023/07/19 00:19:20;;;;;;;;;;;;;;;17.94;61.90;100290.28;108045;1254;73523;-77
2023/07/19 00:21:47;;;;;;;;;;;;;;;17.97;62.08;100288.73;108035;1256;71351;-77
2023/07/19 00:24:14;;;;;;;;;;;;;;;17.99;62.21;100293.15;107886;1257;72415;-75
2023/07/19 00:26:41;;;;;;;;;;;;;;;18.01;62.32;100293.01;108043;1254;61902;-76
2023/07/19 00:29:09;;;;;;;;;;;;;;;18.01;62.32;100292.85;108150;1256;61168;-76
2023/07/19 00:31:37;;;;;;;;;;;;;;;18.00;62.33;100287.83;108141;1254;74615;-76
2023/07/19 00:34:06;;;;;;;;;;;;;;;17.98;62.55;100287.24;108079;1254;72611;-77
2023/07/19 00:36:33;;;;;;;;;;;;;;;17.92;62.69;100288.59;107865;1255;71715;-76
2023/07/19 06:35:47;;;;;;;;;;;;;;;25.21;39.58;100211.80;108087;1257;61304;-79
2023/07/19 06:38:14;;;;;;;;;;;;;;;25.20;39.71;100207.18;108095;1254;74078;-78
2023/07/19 06:40:40;;;;;;;;;;;;;;;25.26;39.67;100205.73;108112;1254;76027;-78
2023/07/19 06:43:09;;;;;;;;;;;;;;;25.36;39.29;100205.66;108047;1254;71816;-78
2023/07/19 06:45:35;;;;;;;;;;;;;;;25.43;38.73;100200.46;107965;1256;61900;-78
2023/07/19 06:48:02;;;;;;;;;;;;;;;25.51;38.27;100201.52;108119;1255;60669;-78
2023/07/19 06:50:29;;;;;;;;;;;;;;;25.59;37.96;100201.35;108151;1255;75213;-78
2023/07/19 06:52:56;;;;;;;;;;;;;;;25.65;37.75;100191.98;108041;1256;71429;-78
2023/07/19 06:55:23;;;;;;;;;;;;;;;25.79;37.65;100188.75;108084;1254;60672;-77
2023/07/19 06:57:49;;;;;;;;;;;;;;;25.84;36.92;100187.84;108004;1255;62123;-78
2023/07/19 07:00:16;;;;;;;;;;;;;;;25.80;36.22;100185.42;108006;1255;61980;-79
2023/07/19 07:02:43;;;;;;;;;;;;;;;25.77;36.72;100186.14;108115;1256;76639;-78
2023/07/19 07:05:12;;;;;;;;;;;;;;;25.79;37.04;100183.13;108118;1254;73870;-77
2023/07/19 07:07:41;;;;;;;;;;;;;;;25.87;36.81;100177.17;108168;1254;74168;-77
2023/07/19 07:10:12;;;;;;;;;;;;;;;25.98;36.29;100175.98;108125;1254;62060;-78
2023/07/19 07:12:38;;;;;;;;;;;;;;;26.02;35.75;100177.51;108018;1255;61931;-78
2023/07/19 07:15:05;;;;;;;;;;;;;;;26.02;36.28;100169.46;108100;1254;61900;-78
2023/07/19 07:17:31;;;;;;;;;;;;;;;26.08;36.94;100170.48;108160;1255;72943;-78
2023/07/19 07:19:58;;;;;;;;;;;;;;;26.15;36.13;100162.69;108034;1258;73181;-77
2023/07/19 07:22:26;;;;;;;;;;;;;;;26.17;35.73;100159.27;108059;1258;62842;-78
2023/07/19 07:24:54;;;;;;;;;;;;;;;26.23;35.58;100155.17;108038;1256;61972;-78
2023/07/19 07:27:22;;;;;;;;;;;;;;;26.30;35.90;100150.58;108072;1256;78896;-78
2023/07/19 07:29:48;;;;;;;;;;;;;;;26.39;35.81;100151.71;108055;1255;72034;-78
2023/07/19 07:32:16;;;;;;;;;;;;;;;26.48;35.95;100153.45;108067;1255;72816;-77
2023/07/19 07:34:43;;;;;;;;;;;;;;;26.52;35.75;100154.06;107961;1254;60800;-77
2023/07/19 07:37:10;;;;;;;;;;;;;;;26.58;35.74;100154.73;108083;1255;61790;-77
2023/07/19 07:39:36;;;;;;;;;;;;;;;26.70;34.75;100152.92;108083;1255;61961;-77
2023/07/19 07:42:04;;;;;;;;;;;;;;;26.79;33.13;100151.36;108079;1255;74595;-79
2023/07/19 07:44:31;;;;;;;;;;;;;;;26.79;31.96;100150.19;108067;1257;72658;-76
2023/07/19 07:46:58;;;;;;;;;;;;;;;26.79;32.58;100150.75;108088;1258;61979;-77
2023/07/19 07:49:25;;;;;;;;;;;;;;;26.75;32.09;100146.39;108103;1254;61922;-78
2023/07/19 07:51:52;;;;;;;;;;;;;;;26.65;32.37;100144.11;108156;1254;74593;-77
2023/07/19 07:54:20;;;;;;;;;;;;;;;26.57;33.24;100144.18;108055;1257;71700;-77
2023/07/19 07:56:46;;;;;;;;;;;;;;;26.55;33.50;100146.27;108056;1255;73492;-76
2023/07/19 07:59:14;;;;;;;;;;;;;;;26.51;32.36;100149.98;108088;1259;62038;-76
2023/07/19 08:01:41;;;;;;;;;;;;;;;26.51;32.26;100153.04;108072;1254;62063;-77
2023/07/19 08:04:10;;;;;;;;;;;;;;;26.65;32.95;100151.92;108079;1256;76756;-78
2023/07/19 08:06:36;;;;;;;;;;;;;;;26.91;32.22;100147.48;108042;1256;72836;-77
2023/07/19 08:09:03;;;;;;;;;;;;;;;27.07;32.60;100149.59;108024;1254;62018;-78
2023/07/19 08:11:31;;;;;;;;;;;;;;;27.18;31.85;100152.21;108132;1257;62056;-77
2023/07/19 08:13:58;;;;;;;;;;;;;;;27.12;32.05;100151.20;108093;1254;62670;-78
2023/07/19 08:16:25;;;;;;;;;;;;;;;27.00;31.85;100154.45;108102;1255;62024;-78
2023/07/19 08:18:52;;;;;;;;;;;;;;;26.71;31.02;100152.46;108096;1256;75578;-78
2023/07/19 08:21:18;;;;;;;;;;;;;;;26.56;31.49;100154.26;107989;1256;74095;-78
2023/07/19 08:24:02;;;;;;;;;;;;;;;26.45;30.21;100158.10;107990;1256;61965;-79
2023/07/19 08:26:28;;;;;;;;;;;;;;;26.34;29.85;100157.83;108002;1256;64538;-78
2023/07/19 08:28:55;;;;;;;;;;;;;;;26.35;30.04;100151.17;107932;1253;62153;-77
2023/07/19 08:31:23;;;;;;;;;;;;;;;26.35;29.90;100149.68;108098;1254;61944;-78
2023/07/19 08:33:53;;;;;;;;;;;;;;;26.54;30.65;100150.24;108172;1254;75359;-77
2023/07/19 08:36:19;;;;;;;;;;;;;;;26.78;29.98;100147.84;108116;1256;62012;-76
2023/07/19 08:38:47;;;;;;;;;;;;;;;26.92;29.19;100143.41;108146;1254;61960;-77
2023/07/19 08:41:15;;;;;;;;;;;;;;;27.09;28.79;100140.05;108043;1256;61917;-78
2023/07/19 08:43:43;;;;;;;;;;;;;;;27.11;27.64;100145.02;108124;1254;72977;-78
2023/07/19 08:46:13;;;;;;;;;;;;;;;27.15;27.33;100139.48;107981;1254;73245;-76
2023/07/19 08:48:39;;;;;;;;;;;;;;;27.21;27.28;100139.62;108088;1256;61910;-77
2023/07/19 08:51:06;;;;;;;;;;;;;;;27.29;26.42;100140.86;107896;1256;61998;-76
2023/07/19 08:53:34;;;;;;;;;;;;;;;27.40;27.41;100138.91;107944;1255;74557;-77
2023/07/19 08:56:00;;;;;;;;;;;;;;;27.56;27.76;100136.27;108084;1257;73297;-77
2023/07/19 08:58:27;;;;;;;;;;;;;;;27.74;27.87;100133.73;108088;1257;72091;-77
2023/07/19 09:00:55;;;;;;;;;;;;;;;27.92;28.24;100130.21;108100;1254;60916;-77
2023/07/19 09:03:21;;;;;;;;;;;;;;;28.02;28.17;100133.71;108059;1254;61694;-77
2023/07/19 09:05:48;;;;;;;;;;;;;;;27.94;27.89;100133.75;108029;1254;78591;-76
2023/07/19 09:08:15;;;;;;;;;;;;;;;27.85;27.81;100131.20;108029;1257;75014;-77
2023/07/19 09:10:44;;;;;;;;;;;;;;;27.85;28.28;100121.63;108093;1256;62100;-76
2023/07/19 09:13:11;;;;;;;;;;;;;;;27.93;28.85;100120.42;108125;1257;62072;-76
2023/07/19 09:15:38;;;;;;;;;;;;;;;28.04;28.97;100117.64;108164;1254;61873;-76
2023/07/19 09:18:05;;;;;;;;;;;;;;;28.05;28.32;100112.39;108019;1255;67536;-76
2023/07/19 09:20:37;;;;;;;;;;;;;;;28.03;28.86;100107.13;107910;1256;73170;-77
2023/07/19 09:23:05;;;;;;;;;;;;;;;28.07;29.03;100103.93;108036;1258;71401;-76
2023/07/19 09:25:33;;;;;;;;;;;;;;;28.12;28.93;100100.56;108103;1254;61959;-78
2023/07/19 09:28:08;;;;;;;;;;;;;;;28.20;28.74;100103.11;108095;1256;61929;-77
2023/07/19 09:30:36;;;;;;;;;;;;;;;28.27;28.03;100095.68;107975;1254;75550;-78
2023/07/19 09:33:03;;;;;;;;;;;;;;;28.33;28.38;100094.35;108089;1257;71620;-78
2023/07/19 09:35:30;;;;;;;;;;;;;;;28.40;28.03;100091.57;108074;1257;66205;-78
2023/07/19 09:37:58;;;;;;;;;;;;;;;28.41;27.20;100085.93;108073;1257;62188;-77
2023/07/19 09:40:25;;;;;;;;;;;;;;;28.47;28.02;100081.55;108081;1259;61999;-78
2023/07/19 09:42:51;;;;;;;;;;;;;;;28.53;27.91;100081.63;107916;1256;62120;-77
2023/07/19 09:45:18;;;;;;;;;;;;;;;28.53;27.87;100078.48;108078;1257;62060;-79
2023/07/19 09:47:47;;;;;;;;;;;;;;;28.42;28.17;100077.77;108015;1259;73910;-78
2023/07/19 09:50:14;;;;;;;;;;;;;;;28.30;28.25;100072.92;108060;1256;61926;-78
2023/07/19 09:52:42;;;;;;;;;;;;;;;28.17;29.35;100078.38;108077;1255;62057;-78
2023/07/19 09:55:09;;;;;;;;;;;;;;;28.01;28.81;100086.73;108113;1255;75972;-78
2023/07/19 09:57:37;;;;;;;;;;;;;;;27.82;28.66;100078.65;108042;1256;77432;-77
2023/07/19 10:00:03;;;;;;;;;;;;;;;27.58;28.70;100073.58;108126;1256;76116;-77
2023/07/19 10:02:32;;;;;;;;;;;;;;;27.50;29.49;100065.77;108136;1255;61838;-78
2023/07/19 10:05:05;;;;;;;;;;;;;;;27.63;29.74;100068.50;108147;1254;61909;-78
2023/07/19 10:07:31;;;;;;;;;;;;;;;27.87;28.64;100063.00;107948;1254;75592;-77
2023/07/19 10:10:15;;;;;;;;;;;;;;;28.11;27.89;100060.17;108106;1254;71679;-78
2023/07/19 10:12:45;;;;;;;;;;;;;;;28.29;27.59;100057.08;108011;1254;71693;-77
2023/07/19 10:15:13;;;;;;;;;;;;;;;28.33;27.78;100053.46;108078;1255;61921;-77
2023/07/19 10:17:40;;;;;;;;;;;;;;;28.44;27.96;100057.90;108183;1256;62038;-78
2023/07/19 10:20:07;;;;;;;;;;;;;;;28.49;26.61;100057.13;108171;1256;66914;-78
2023/07/19 10:22:53;;;;;;;;;;;;;;;28.45;26.34;100055.09;108137;1259;74443;-78
2023/07/19 10:25:34;;;;;;;;;;;;;;;28.21;27.18;100050.08;107981;1254;72760;-78
2023/07/19 10:28:05;;;;;;;;;;;;;;;28.24;28.46;100046.86;108010;1255;62081;-78
2023/07/19 10:30:48;;;;;;;;;;;;;;;28.41;28.74;100041.09;108100;1254;62047;-78
2023/07/19 10:33:16;;;;;;;;;;;;;;;28.60;29.13;100039.25;108057;1254;77421;-78
2023/07/19 10:35:43;;;;;;;;;;;;;;;28.70;28.54;100033.35;108093;1254;67518;-78
2023/07/19 10:38:22;;;;;;;;;;;;;;;28.72;27.56;100030.21;108077;1255;62204;-78
2023/07/19 10:40:52;;;;;;;;;;;;;;;28.67;27.11;100031.08;108156;1256;62180;-78
2023/07/19 10:43:19;;;;;;;;;;;;;;;28.49;27.26;100035.08;108022;1260;62040;-79
2023/07/19 10:46:05;;;;;;;;;;;;;;;28.52;27.21;100026.37;108017;1254;78439;-78
2023/07/19 10:48:35;;;;;;;;;;;;;;;28.71;27.31;100026.92;108084;1254;66805;-79
2023/07/19 10:51:08;;;;;;;;;;;;;;;28.86;26.82;100026.05;108116;1255;64269;-78
2023/07/19 10:53:43;;;;;;;;;;;;;;;28.96;26.88;100028.77;108067;1254;61813;-78
2023/07/19 10:56:09;;;;;;;;;;;;;;;29.06;27.17;100025.49;108162;1254;61883;-78
2023/07/19 10:58:36;;;;;;;;;;;;;;;29.18;27.44;100022.26;108054;1256;68954;-78
2023/07/19 11:01:04;;;;;;;;;;;;;;;29.27;27.39;100019.09;108035;1256;61832;-77
2023/07/19 11:03:32;;;;;;;;;;;;;;;29.27;27.22;100021.84;108058;1255;65734;-76
2023/07/19 11:05:59;;;;;;;;;;;;;;;29.23;27.64;100013.92;108108;1254;62021;-78
2023/07/19 11:08:26;;;;;;;;;;;;;;;29.22;27.57;100015.96;107949;1257;62072;-78
2023/07/19 11:10:55;;;;;;;;;;;;;;;29.24;27.50;100012.19;108022;1259;67023;-78
2023/07/19 11:13:25;;;;;;;;;;;;;;;29.25;27.37;100011.86;108095;1256;66099;-77
2023/07/19 11:15:54;;;;;;;;;;;;;;;29.27;27.45;100007.93;108140;1254;63959;-78
2023/07/19 11:18:24;;;;;;;;;;;;;;;29.37;26.32;100007.83;108118;1254;61952;-78
2023/07/19 11:20:53;;;;;;;;;;;;;;;29.36;25.81;100008.30;108026;1258;62033;-79
2023/07/19 11:23:20;;;;;;;;;;;;;;;29.34;25.90;99998.55;108001;1255;74189;-78
2023/07/19 11:25:46;;;;;;;;;;;;;;;29.33;26.11;100001.77;108076;1257;62143;-77
2023/07/19 11:28:13;;;;;;;;;;;;;;;29.45;26.04;99999.77;107978;1254;66925;-77
2023/07/19 11:30:40;;;;;;;;;;;;;;;29.45;26.35;99999.55;108093;1258;62068;-78
2023/07/19 11:33:07;;;;;;;;;;;;;;;29.36;26.65;100000.60;108047;1254;60022;-77
2023/07/19 11:35:34;;;;;;;;;;;;;;;29.26;26.71;100004.08;108132;1254;67921;-78
2023/07/19 11:38:01;;;;;;;;;;;;;;;29.13;26.72;99998.61;104064;1256;5322397;-77
2023/07/19 11:40:40;;;;;;;;;;;;;;;28.98;27.19;99998.87;108042;1254;61894;-78
2023/07/19 11:43:09;;;;;;;;;;;;;;;28.85;27.90;100006.56;108100;1254;61951;-78
2023/07/19 11:45:38;;;;;;;;;;;;;;;28.70;28.19;100000.55;108095;1257;75467;-76
2023/07/19 11:48:04;;;;;;;;;;;;;;;28.82;27.70;99995.98;108029;1256;72879;-78
2023/07/19 11:50:32;;;;;;;;;;;;;;;28.91;28.45;99989.05;108076;1259;65309;-77
2023/07/19 11:53:02;;;;;;;;;;;;;;;29.04;28.54;99989.29;108032;1254;61950;-78
2023/07/19 11:55:39;;;;;;;;;;;;;;;29.10;27.98;99974.11;108099;1254;61906;-77
2023/07/19 11:58:06;;;;;;;;;;;;;;;29.26;27.52;99972.58;108157;1254;66881;-77
2023/07/19 12:00:32;;;;;;;;;;;;;;;29.31;27.44;99977.35;108039;1257;72722;-77
2023/07/19 12:03:01;;;;;;;;;;;;;;;29.22;27.28;99976.84;107967;1256;65256;-77
2023/07/19 12:05:32;;;;;;;;;;;;;;;29.13;26.87;99966.80;108046;1254;61961;-77
2023/07/19 12:07:58;;;;;;;;;;;;;;;29.21;26.58;99963.32;108012;1254;62181;-77
2023/07/19 12:10:26;;;;;;;;;;;;;;;29.27;26.18;99966.12;108109;1254;61913;-78
2023/07/19 12:12:57;;;;;;;;;;;;;;;29.28;25.96;99962.04;107995;1259;74437;-78
2023/07/19 12:15:24;;;;;;;;;;;;;;;29.16;26.24;99960.41;108105;1257;65706;-78
2023/07/19 12:17:54;;;;;;;;;;;;;;;28.80;26.71;99968.64;108096;1254;61884;-78
2023/07/19 12:20:21;;;;;;;;;;;;;;;28.61;27.53;99966.08;108043;1255;60777;-78
2023/07/19 12:22:48;;;;;;;;;;;;;;;28.60;26.84;99964.59;108140;1254;62061;-79
2023/07/19 12:25:18;;;;;;;;;;;;;;;28.50;27.06;99963.55;108131;1254;64099;-79
2023/07/19 12:27:52;;;;;;;;;;;;;;;28.24;27.53;99959.85;108008;1254;71892;-78
2023/07/19 12:30:18;;;;;;;;;;;;;;;28.12;27.70;99956.77;108053;1255;62060;-79
2023/07/19 12:32:45;;;;;;;;;;;;;;;28.18;27.88;99951.84;108086;1254;61990;-79
2023/07/19 12:35:16;;;;;;;;;;;;;;;28.21;27.97;99948.70;108117;1259;74957;-79
2023/07/19 12:37:46;;;;;;;;;;;;;;;28.20;28.24;99945.41;108078;1254;66770;-77
2023/07/19 12:40:13;;;;;;;;;;;;;;;28.37;28.49;99943.94;108032;1258;64171;-78
2023/07/19 12:42:45;;;;;;;;;;;;;;;28.65;27.44;99938.05;107995;1255;62060;-78
2023/07/19 12:45:17;;;;;;;;;;;;;;;28.94;26.73;99930.70;108148;1254;62332;-78
2023/07/19 12:47:45;;;;;;;;;;;;;;;29.25;25.20;99934.46;107901;1257;76433;-77
2023/07/19 12:50:17;;;;;;;;;;;;;;;29.36;24.43;99930.40;108116;1257;62942;-79
2023/07/19 12:53:08;;;;;;;;;;;;;;;29.31;24.20;99934.05;107987;1254;75706;-77
2023/07/19 12:56:17;;;;;;;;;;;;;;;29.25;24.83;99933.60;108026;1257;62908;-78
2023/07/19 12:58:43;;;;;;;;;;;;;;;29.24;24.70;99936.73;108158;1254;59454;-79
2023/07/19 13:01:12;;;;;;;;;;;;;;;29.19;24.51;99931.43;108070;1259;61971;-79
2023/07/19 13:03:38;;;;;;;;;;;;;;;28.98;24.80;99932.89;107917;1254;62933;-78
2023/07/19 13:06:05;;;;;;;;;;;;;;;28.81;25.58;99932.45;108077;1254;72685;-78
2023/07/19 13:08:32;;;;;;;;;;;;;;;28.72;25.75;99933.16;107867;1256;61845;-79
2023/07/19 13:10:58;;;;;;;;;;;;;;;28.85;25.70;99931.02;108041;1256;61951;-78
2023/07/19 13:13:25;;;;;;;;;;;;;;;29.00;26.11;99922.52;108062;1258;75891;-77
2023/07/19 13:15:51;;;;;;;;;;;;;;;29.15;25.75;99923.98;108131;1254;59628;-77
2023/07/19 13:18:18;;;;;;;;;;;;;;;29.20;24.93;99925.75;108052;1254;62037;-78
2023/07/19 13:20:44;;;;;;;;;;;;;;;29.24;25.22;99923.62;108069;1255;62036;-78
2023/07/19 13:23:16;;;;;;;;;;;;;;;29.29;25.70;99922.66;108100;1254;62057;-78
2023/07/19 13:25:43;;;;;;;;;;;;;;;29.52;25.14;99920.52;108010;1255;77136;-77
2023/07/19 13:28:10;;;;;;;;;;;;;;;29.54;24.25;99910.20;108050;1254;71612;-78
2023/07/19 13:30:37;;;;;;;;;;;;;;;29.53;24.33;99908.08;107985;1254;65660;-79
2023/07/19 13:33:04;;;;;;;;;;;;;;;29.61;24.86;99906.79;107928;1255;61691;-79
2023/07/19 13:35:32;;;;;;;;;;;;;;;29.74;24.48;99908.85;108085;1254;62581;-78
2023/07/19 13:38:01;;;;;;;;;;;;;;;29.89;23.96;99906.87;108131;1254;66037;-79
2023/07/19 13:40:31;;;;;;;;;;;;;;;29.97;23.73;99908.54;108130;1254;74890;-77
2023/07/19 13:42:57;;;;;;;;;;;;;;;29.98;23.48;99909.70;108136;1254;60790;-79
2023/07/19 13:45:24;;;;;;;;;;;;;;;29.89;23.41;99904.34;108086;1254;62062;-78
2023/07/19 13:47:51;;;;;;;;;;;;;;;29.86;23.99;99905.30;107949;1260;62262;-78
2023/07/19 13:50:19;;;;;;;;;;;;;;;29.81;24.85;99902.98;108098;1254;61939;-79
2023/07/19 13:52:45;;;;;;;;;;;;;;;29.76;25.33;99904.42;108104;1254;74156;-79
2023/07/19 13:55:12;;;;;;;;;;;;;;;29.85;25.23;99908.08;108067;1255;64727;-78
2023/07/19 13:57:39;;;;;;;;;;;;;;;29.86;24.86;99902.09;108052;1254;62098;-77
2023/07/19 14:00:06;;;;;;;;;;;;;;;29.78;24.84;99904.35;108067;1259;61920;-79
2023/07/19 14:02:33;;;;;;;;;;;;;;;29.60;25.02;99903.80;108111;1254;65519;-77
2023/07/19 14:05:00;;;;;;;;;;;;;;;29.49;25.13;99906.54;108009;1259;73689;-78
2023/07/19 14:07:27;;;;;;;;;;;;;;;29.51;25.23;99907.53;108073;1254;61945;-78
2023/07/19 14:09:55;;;;;;;;;;;;;;;29.60;25.22;99908.30;107929;1260;60232;-78
2023/07/19 14:12:21;;;;;;;;;;;;;;;29.77;24.46;99906.08;108053;1254;61064;-78
2023/07/19 14:14:51;;;;;;;;;;;;;;;29.92;23.99;99898.97;108128;1254;75513;-78
2023/07/19 14:17:19;;;;;;;;;;;;;;;30.12;24.01;99896.22;108047;1259;66396;-79
2023/07/19 14:19:46;;;;;;;;;;;;;;;30.44;23.69;99898.40;108108;1254;62857;-78
2023/07/19 14:22:13;;;;;;;;;;;;;;;30.85;23.96;99898.31;108031;1254;62027;-77
2023/07/19 14:24:41;;;;;;;;;;;;;;;31.19;23.70;99903.67;108047;1254;61777;-79
2023/07/19 14:27:08;;;;;;;;;;;;;;;31.34;23.58;99899.73;107976;1254;66899;-79
2023/07/19 14:29:34;;;;;;;;;;;;;;;31.45;23.74;99899.27;108012;1254;73939;-80
2023/07/19 14:32:03;;;;;;;;;;;;;;;31.61;22.47;99899.06;107963;1254;75019;-78
2023/07/19 14:34:31;;;;;;;;;;;;;;;31.84;22.25;99898.56;108045;1257;62078;-78
2023/07/19 14:37:05;;;;;;;;;;;;;;;32.14;22.33;99892.41;108035;1254;61910;-78
2023/07/19 14:39:31;;;;;;;;;;;;;;;32.52;22.72;99895.80;108109;1254;67694;-77
2023/07/19 14:41:58;;;;;;;;;;;;;;;32.86;21.95;99891.86;108090;1258;61946;-79
2023/07/19 14:44:25;;;;;;;;;;;;;;;33.02;21.64;99885.95;108039;1254;74903;-78
2023/07/19 14:46:52;;;;;;;;;;;;;;;33.06;21.00;99879.71;108057;1255;62521;-78
2023/07/19 14:49:19;;;;;;;;;;;;;;;33.04;20.99;99881.16;108082;1254;61927;-79
2023/07/19 14:51:46;;;;;;;;;;;;;;;32.96;20.68;99883.36;108089;1255;67051;-78
2023/07/19 14:54:14;;;;;;;;;;;;;;;33.00;20.79;99879.56;107984;1260;72760;-78
2023/07/19 14:56:43;;;;;;;;;;;;;;;33.23;21.21;99876.80;108030;1254;64229;-78
2023/07/19 14:59:09;;;;;;;;;;;;;;;33.58;21.27;99879.05;108118;1254;62479;-78
2023/07/19 15:01:36;;;;;;;;;;;;;;;33.75;20.65;99877.34;108104;1254;62738;-78
2023/07/19 15:04:03;;;;;;;;;;;;;;;33.69;21.03;99873.67;107896;1254;68966;-78
2023/07/19 15:06:31;;;;;;;;;;;;;;;33.75;20.94;99870.67;108082;1254;63833;-77
2023/07/19 15:08:59;;;;;;;;;;;;;;;34.05;20.75;99872.55;108059;1254;72285;-77
2023/07/19 15:11:28;;;;;;;;;;;;;;;34.49;20.30;99867.25;108096;1254;61179;-77
2023/07/19 15:13:55;;;;;;;;;;;;;;;34.78;19.22;99866.25;108067;1256;61947;-78
2023/07/19 15:16:21;;;;;;;;;;;;;;;35.01;19.09;99866.32;108079;1254;70322;-78
2023/07/19 15:18:48;;;;;;;;;;;;;;;35.32;19.25;99867.14;108099;1254;63205;-77
2023/07/19 15:21:16;;;;;;;;;;;;;;;35.60;19.04;99863.59;108042;1254;64424;-78
2023/07/19 15:23:43;;;;;;;;;;;;;;;35.74;18.98;99863.63;107982;1254;61904;-78
2023/07/19 15:26:13;;;;;;;;;;;;;;;35.88;19.00;99863.83;108076;1255;62046;-78
2023/07/19 15:29:00;;;;;;;;;;;;;;;36.00;18.46;99861.37;108018;1254;68085;-78
2023/07/19 15:31:26;;;;;;;;;;;;;;;35.99;18.23;99863.77;107890;1254;64225;-78
2023/07/19 15:33:53;;;;;;;;;;;;;;;35.92;18.00;99864.95;107989;1255;64338;-75
2023/07/19 15:36:19;;;;;;;;;;;;;;;35.79;18.61;99866.88;107965;1254;61953;-78
2023/07/19 15:38:48;;;;;;;;;;;;;;;35.89;18.66;99860.84;107909;1254;63126;-76
2023/07/19 15:41:14;;;;;;;;;;;;;;;36.05;18.53;99862.70;108031;1260;65837;-77
2023/07/19 15:43:42;;;;;;;;;;;;;;;36.24;18.42;99863.58;108030;1254;66512;-77
2023/07/19 15:46:09;;;;;;;;;;;;;;;36.25;18.12;99868.13;100330;1254;10001621;-76
2023/07/19 15:48:38;;;;;;;;;;;;;;;35.89;18.23;99866.94;93061;1255;10002311;-76
2023/07/19 15:51:05;;;;;;;;;;;;;;;35.47;18.90;99865.40;108028;1254;61899;-76
2023/07/19 15:53:36;;;;;;;;;;;;;;;35.43;19.46;99863.08;107970;1254;70200;-75
2023/07/19 15:56:05;;;;;;;;;;;;;;;35.44;18.79;99861.13;108051;1257;64584;-75
2023/07/19 15:58:33;;;;;;;;;;;;;;;35.17;18.76;99858.31;108046;1254;64517;-75
2023/07/19 16:01:00;;;;;;;;;;;;;;;34.98;19.63;99856.09;107961;1257;61973;-76
2023/07/19 16:03:28;;;;;;;;;;;;;;;35.13;19.82;99861.02;108047;1254;62118;-75
2023/07/19 16:05:55;;;;;;;;;;;;;;;35.37;19.49;99860.48;107934;1254;68969;-75
2023/07/19 16:08:21;;;;;;;;;;;;;;;35.46;19.68;99857.16;107782;1254;61946;-75
2023/07/19 16:10:48;;;;;;;;;;;;;;;35.51;19.64;99853.30;107973;1256;73905;-76
2023/07/19 16:13:15;;;;;;;;;;;;;;;35.49;19.25;99852.58;107908;1256;62208;-77
2023/07/19 16:15:42;;;;;;;;;;;;;;;35.34;19.44;99854.23;107925;1254;62043;-77
2023/07/19 16:18:13;;;;;;;;;;;;;;;35.18;19.34;99860.11;108011;1254;66769;-76
2023/07/19 16:20:40;;;;;;;;;;;;;;;35.15;19.61;99856.39;108091;1254;62021;-76
2023/07/19 16:23:07;;;;;;;;;;;;;;;35.17;20.16;99854.81;107930;1254;73010;-76
2023/07/19 16:25:33;;;;;;;;;;;;;;;35.00;20.29;99855.63;107830;1254;61507;-76
2023/07/19 16:28:00;;;;;;;;;;;;;;;34.68;20.21;99857.80;107874;1254;61973;-75
2023/07/19 16:30:26;;;;;;;;;;;;;;;34.24;20.28;99859.02;107837;1254;61023;-77
2023/07/19 16:32:54;;;;;;;;;;;;;;;33.85;20.27;99857.92;107840;1254;65943;-77
2023/07/19 16:35:20;;;;;;;;;;;;;;;33.66;20.41;99856.48;107875;1254;64128;-76
2023/07/19 16:37:48;;;;;;;;;;;;;;;33.55;20.73;99852.95;107883;1254;61548;-76
2023/07/19 16:40:14;;;;;;;;;;;;;;;33.64;21.01;99853.05;107912;1259;62005;-75
2023/07/19 16:42:41;;;;;;;;;;;;;;;33.81;21.36;99852.09;107920;1254;68533;-75
2023/07/19 16:45:08;;;;;;;;;;;;;;;34.05;21.50;99854.11;107989;1254;66854;-75
2023/07/19 16:47:35;;;;;;;;;;;;;;;34.43;21.12;99857.02;107938;1257;62748;-76
2023/07/19 16:50:02;;;;;;;;;;;;;;;34.77;20.68;99853.99;107875;1254;61975;-76
2023/07/19 16:53:02;;;;;;;;;;;;;;;34.94;20.68;99852.53;107636;1255;60508;-77
2023/07/19 16:55:30;;;;;;;;;;;;;;;35.13;20.67;99847.81;107784;1254;76916;-77
2023/07/19 16:58:02;;;;;;;;;;;;;;;35.30;20.98;99849.67;107911;1259;66991;-77
2023/07/19 17:00:29;;;;;;;;;;;;;;;35.49;20.81;99845.91;107960;1255;74274;-75
2023/07/19 17:02:59;;;;;;;;;;;;;;;35.54;20.73;99845.08;107978;1254;62046;-73
2023/07/19 17:05:26;;;;;;;;;;;;;;;35.46;20.79;99845.36;107990;1254;61938;-77
2023/07/19 17:07:54;;;;;;;;;;;;;;;35.33;21.01;99840.63;107943;1254;65927;-74
2023/07/19 17:10:21;;;;;;;;;;;;;;;35.15;21.01;99841.72;107887;1254;64937;-75
2023/07/19 17:12:48;;;;;;;;;;;;;;;34.87;21.39;99842.68;107919;1254;62899;-75
2023/07/19 17:15:15;;;;;;;;;;;;;;;34.58;21.67;99844.42;107781;1255;61964;-76
2023/07/19 17:17:42;;;;;;;;;;;;;;;34.23;21.76;99849.88;107925;1254;62008;-74
2023/07/19 17:20:10;;;;;;;;;;;;;;;33.78;22.36;99850.48;107756;1260;67639;-74
2023/07/19 17:22:38;;;;;;;;;;;;;;;33.20;23.02;99857.10;108009;1254;64309;-74
2023/07/19 17:25:05;;;;;;;;;;;;;;;32.60;23.66;99864.67;108006;1254;64178;-75
2023/07/19 17:27:32;;;;;;;;;;;;;;;32.02;24.55;99870.66;107921;1258;61970;-75
2023/07/19 17:30:03;;;;;;;;;;;;;;;31.53;24.72;99869.50;107845;1254;62660;-76
2023/07/19 17:32:30;;;;;;;;;;;;;;;30.99;24.80;99876.49;108010;1254;68096;-76
2023/07/19 17:34:58;;;;;;;;;;;;;;;30.38;25.12;99875.86;107745;1257;66060;-76
2023/07/19 17:37:25;;;;;;;;;;;;;;;29.83;25.67;99877.40;107761;1257;64464;-77
2023/07/19 17:39:52;;;;;;;;;;;;;;;29.48;26.09;99885.15;107986;1254;61877;-78
2023/07/19 17:42:20;;;;;;;;;;;;;;;29.11;26.63;99891.13;107952;1254;61961;-76
2023/07/19 17:44:47;;;;;;;;;;;;;;;28.70;26.98;99894.86;107883;1254;76033;-77
2023/07/19 17:47:13;;;;;;;;;;;;;;;28.34;27.67;99900.00;107951;1254;73534;-77
2023/07/19 17:49:40;;;;;;;;;;;;;;;27.94;28.22;99897.30;107934;1258;60449;-77
2023/07/19 17:52:07;;;;;;;;;;;;;;;27.53;28.64;99900.96;107892;1259;62057;-77
2023/07/19 17:54:34;;;;;;;;;;;;;;;27.20;28.87;99906.88;107892;1254;61915;-77
2023/07/19 17:57:00;;;;;;;;;;;;;;;26.91;29.33;99905.86;107867;1254;74123;-77
2023/07/19 17:59:28;;;;;;;;;;;;;;;26.62;29.64;99909.44;107917;1254;72887;-78
2023/07/19 18:01:56;;;;;;;;;;;;;;;26.37;30.03;99904.61;107878;1254;72609;-78
2023/07/19 18:04:22;;;;;;;;;;;;;;;26.13;30.41;99901.06;107979;1254;61987;-78
2023/07/19 18:06:50;;;;;;;;;;;;;;;25.89;30.89;99902.09;107941;1254;61915;-78
2023/07/19 18:09:18;;;;;;;;;;;;;;;25.69;31.33;99902.88;107927;1254;75757;-79
2023/07/19 18:11:48;;;;;;;;;;;;;;;25.47;32.02;99903.11;107897;1254;72565;-79
2023/07/19 18:14:16;;;;;;;;;;;;;;;25.23;32.28;99902.52;108031;1254;72993;-79
2023/07/19 18:16:43;;;;;;;;;;;;;;;25.00;32.61;99904.77;107955;1254;62087;-82
2023/07/19 18:19:11;;;;;;;;;;;;;;;24.82;33.37;99902.90;107705;1260;62046;-78
2023/07/19 18:21:38;;;;;;;;;;;;;;;24.67;33.66;99902.67;107875;1254;76583;-77
2023/07/19 18:24:13;;;;;;;;;;;;;;;24.50;34.40;99902.42;107787;1254;70995;-80
2023/07/19 18:26:40;;;;;;;;;;;;;;;24.34;35.17;99900.20;107934;1254;74192;-80
2023/07/19 18:29:07;;;;;;;;;;;;;;;24.22;35.90;99908.58;107919;1254;62076;-79
2023/07/19 18:31:34;;;;;;;;;;;;;;;24.09;36.34;99909.92;107894;1256;61202;-81
2023/07/19 18:34:01;;;;;;;;;;;;;;;23.97;37.06;99914.09;108018;1258;74629;-82
2023/07/19 18:36:27;;;;;;;;;;;;;;;23.86;37.44;99921.67;107706;1254;62650;-81